Time;durP1;ratioP1;P1;durP2;ratioP2;P2;SDS_P1;SDS_P2;PMS_P1;PMS_P2;Temp;Humidity;BMP_temperature;BMP_pressure;BME280_temperature;BME280_humidity;BME280_pressure;Samples;Min_cycle;Max_cycle;Signal;HPM_P1;HPM_P2
2022/10/08 00:01:48;;;;;;;9.23;3.73;;;;;;;;;;5047886;28;20545;-76
2022/10/08 00:04:14;;;;;;;12.23;3.90;;;;;;;;;;5044402;28;20757;-76
2022/10/08 00:06:40;;;;;;;7.20;3.77;;;;;;;;;;5047942;28;20429;-77
2022/10/08 00:09:06;;;;;;;6.87;3.20;;;;;;;;;;5027384;28;20457;-78
2022/10/08 00:11:34;;;;;;;6.07;3.60;;;;;;;;;;5046680;28;20450;-77
2022/10/08 00:14:03;;;;;;;7.33;3.97;;;;;;;;;;5043637;28;20818;-75
2022/10/08 00:16:29;;;;;;;6.77;3.47;;;;;;;;;;5047357;28;20700;-76
2022/10/08 00:18:59;;;;;;;4.03;3.03;;;;;;;;;;5028033;28;20457;-76
2022/10/08 00:21:30;;;;;;;5.63;3.67;;;;;;;;;;5046813;28;20461;-75
2022/10/08 00:23:56;;;;;;;7.97;3.50;;;;;;;;;;5043033;28;20437;-77
2022/10/08 00:26:24;;;;;;;5.10;3.07;;;;;;;;;;5047062;28;20418;-76
2022/10/08 00:28:51;;;;;;;7.30;3.17;;;;;;;;;;5029113;28;20819;-76
2022/10/08 00:31:19;;;;;;;6.57;3.80;;;;;;;;;;5046379;28;20966;-76
2022/10/08 00:33:48;;;;;;;3.27;3.10;;;;;;;;;;5043103;28;20442;-75
2022/10/08 00:36:14;;;;;;;6.10;3.30;;;;;;;;;;5046662;28;20421;-76
2022/10/08 00:38:40;;;;;;;5.83;3.33;;;;;;;;;;5031090;28;20444;-75
2022/10/08 00:41:07;;;;;;;5.63;2.80;;;;;;;;;;5046461;28;20445;-76
2022/10/08 00:43:36;;;;;;;6.63;3.20;;;;;;;;;;5044010;28;20459;-76
2022/10/08 00:46:02;;;;;;;5.60;3.03;;;;;;;;;;5060474;28;20409;-76
2022/10/08 00:48:29;;;;;;;7.20;3.70;;;;;;;;;;5055136;28;20456;-75
2022/10/08 00:50:55;;;;;;;7.30;3.77;;;;;;;;;;5046362;28;20426;-75
2022/10/08 00:53:21;;;;;;;6.70;3.60;;;;;;;;;;5042817;28;20462;-76
2022/10/08 00:55:47;;;;;;;3.87;3.33;;;;;;;;;;5046321;28;20425;-75
2022/10/08 00:58:16;;;;;;;8.10;3.60;;;;;;;;;;5042048;28;20738;-77
2022/10/08 01:00:43;;;;;;;4.57;3.17;;;;;;;;;;5045969;28;20480;-77
2022/10/08 01:03:09;;;;;;;5.80;2.80;;;;;;;;;;5042622;28;20966;-76
2022/10/08 01:06:00;;;;;;;7.00;3.00;;;;;;;;;;5046439;28;20429;-75
2022/10/08 01:08:33;;;;;;;3.00;2.80;;;;;;;;;;5033167;28;20450;-75
2022/10/08 01:11:11;;;;;;;5.60;3.17;;;;;;;;;;5026013;28;20605;-75
2022/10/08 01:13:48;;;;;;;6.40;2.63;;;;;;;;;;5034810;28;20457;-76
2022/10/08 01:16:32;;;;;;;4.90;3.60;;;;;;;;;;5026375;28;20446;-76
2022/10/08 01:19:15;;;;;;;6.07;3.30;;;;;;;;;;5041550;28;20448;-75
2022/10/08 01:21:50;;;;;;;3.00;2.70;;;;;;;;;;5025846;28;20454;-76
2022/10/08 01:25:31;;;;;;;6.90;3.00;;;;;;;;;;5039507;28;20461;-76
2022/10/08 01:27:36;;;;;;;3.03;2.73;;;;;;;;;;5043703;28;20445;-75
2022/10/08 01:30:05;;;;;;;4.83;3.07;;;;;;;;;;5045773;28;20740;-78
2022/10/08 01:32:37;;;;;;;3.17;2.80;;;;;;;;;;5041659;28;20434;-76
2022/10/08 01:35:06;;;;;;;3.37;2.60;;;;;;;;;;5046038;28;20872;-76
2022/10/08 01:37:35;;;;;;;6.70;3.77;;;;;;;;;;5041471;28;21065;-76
2022/10/08 01:40:03;;;;;;;8.70;3.20;;;;;;;;;;5045529;28;20932;-76
2022/10/08 01:42:30;;;;;;;7.87;2.60;;;;;;;;;;5041548;28;20457;-76
2022/10/08 01:44:58;;;;;;;6.70;3.50;;;;;;;;;;5040469;28;20815;-76
2022/10/08 01:47:27;;;;;;;7.63;3.20;;;;;;;;;;5041727;28;20556;-76
2022/10/08 01:50:14;;;;;;;5.23;2.87;;;;;;;;;;5045252;28;20822;-76
2022/10/08 01:52:49;;;;;;;6.03;3.13;;;;;;;;;;5024268;28;20442;-76
2022/10/08 01:55:21;;;;;;;8.20;3.17;;;;;;;;;;5045302;28;20500;-76
2022/10/08 01:57:48;;;;;;;6.73;3.43;;;;;;;;;;5041967;28;20445;-75
2022/10/08 02:00:15;;;;;;;7.10;2.60;;;;;;;;;;5043932;28;21058;-76
2022/10/08 02:02:41;;;;;;;2.57;2.37;;;;;;;;;;5041203;28;20484;-75
2022/10/08 02:05:08;;;;;;;8.27;2.80;;;;;;;;;;5045822;28;20489;-75
2022/10/08 02:07:38;;;;;;;4.90;3.20;;;;;;;;;;5041995;28;20425;-75
2022/10/08 02:10:04;;;;;;;6.27;3.00;;;;;;;;;;5048886;28;20429;-76
2022/10/08 02:12:30;;;;;;;2.50;2.27;;;;;;;;;;5043634;28;20500;-76
2022/10/08 02:14:57;;;;;;;4.27;2.90;;;;;;;;;;5029486;28;20407;-76
2022/10/08 02:17:23;;;;;;;8.23;2.00;;;;;;;;;;5048954;28;20516;-76
2022/10/08 02:20:08;;;;;;;3.57;3.27;;;;;;;;;;5047678;28;20954;-76
2022/10/08 02:22:36;;;;;;;5.93;2.77;;;;;;;;;;5045444;28;20463;-75
2022/10/08 02:25:09;;;;;;;6.30;2.47;;;;;;;;;;5049195;28;20684;-76
2022/10/08 02:27:44;;;;;;;3.90;2.67;;;;;;;;;;5045264;28;20784;-75
2022/10/08 02:30:11;;;;;;;11.33;4.07;;;;;;;;;;5047681;28;21009;-75
2022/10/08 02:32:47;;;;;;;3.03;2.60;;;;;;;;;;5045550;28;20457;-75
2022/10/08 02:35:18;;;;;;;2.43;2.17;;;;;;;;;;5049111;28;20410;-75
2022/10/08 02:37:47;;;;;;;8.03;4.73;;;;;;;;;;5026086;28;20513;-75
2022/10/08 02:40:15;;;;;;;3.87;2.60;;;;;;;;;;5028761;28;20951;-75
2022/10/08 02:42:43;;;;;;;5.67;2.77;;;;;;;;;;5044746;28;20492;-76
2022/10/08 02:45:09;;;;;;;5.57;2.80;;;;;;;;;;5047120;28;20803;-75
2022/10/08 02:47:37;;;;;;;4.23;2.50;;;;;;;;;;5054772;28;20428;-73
2022/10/08 02:50:06;;;;;;;6.93;2.93;;;;;;;;;;5048577;28;20419;-77
2022/10/08 02:52:35;;;;;;;4.43;2.30;;;;;;;;;;5050043;28;20429;-75
2022/10/08 02:55:03;;;;;;;3.53;2.60;;;;;;;;;;5048669;28;20435;-76
2022/10/08 02:57:31;;;;;;;5.07;3.07;;;;;;;;;;5048206;28;20833;-76
2022/10/08 02:59:58;;;;;;;9.70;3.03;;;;;;;;;;5044924;28;20445;-75
2022/10/08 03:02:27;;;;;;;2.97;2.77;;;;;;;;;;5048544;28;20548;-75
2022/10/08 03:04:58;;;;;;;2.80;2.70;;;;;;;;;;5025644;28;20488;-75
2022/10/08 03:07:25;;;;;;;5.93;2.90;;;;;;;;;;5048330;28;20485;-76
2022/10/08 03:09:51;;;;;;;3.53;2.40;;;;;;;;;;5044927;28;20804;-76
2022/10/08 03:12:18;;;;;;;6.43;2.57;;;;;;;;;;5047916;28;20448;-76
2022/10/08 03:14:46;;;;;;;4.73;2.77;;;;;;;;;;5026186;28;20679;-75
2022/10/08 03:17:14;;;;;;;4.37;2.20;;;;;;;;;;5047779;28;20681;-75
2022/10/08 03:19:40;;;;;;;4.03;2.60;;;;;;;;;;5044012;28;20469;-75
2022/10/08 03:22:07;;;;;;;6.50;2.33;;;;;;;;;;5047165;28;20962;-75
2022/10/08 03:24:33;;;;;;;5.07;2.60;;;;;;;;;;5029025;28;20949;-75
2022/10/08 03:26:59;;;;;;;9.90;3.13;;;;;;;;;;5047064;28;20425;-76
2022/10/08 03:29:25;;;;;;;8.00;3.03;;;;;;;;;;5043908;28;20971;-76
2022/10/08 03:31:51;;;;;;;9.57;2.87;;;;;;;;;;5047706;28;20426;-76
2022/10/08 03:34:17;;;;;;;6.20;3.30;;;;;;;;;;5031640;28;20446;-75
2022/10/08 03:36:43;;;;;;;5.97;3.50;;;;;;;;;;5046948;28;20420;-76
2022/10/08 03:39:10;;;;;;;5.53;3.57;;;;;;;;;;5044552;28;20428;-76
2022/10/08 03:41:36;;;;;;;3.70;2.80;;;;;;;;;;5047670;28;20516;-76
2022/10/08 03:44:02;;;;;;;6.80;3.10;;;;;;;;;;5043742;28;20464;-76
2022/10/08 03:46:28;;;;;;;5.30;3.03;;;;;;;;;;5045455;28;20948;-76
2022/10/08 03:48:54;;;;;;;12.17;3.13;;;;;;;;;;5043293;28;20450;-75
2022/10/08 03:51:22;;;;;;;3.50;2.40;;;;;;;;;;5047478;28;20429;-75
2022/10/08 03:53:48;;;;;;;7.33;3.97;;;;;;;;;;5043807;28;20477;-75
2022/10/08 03:56:15;;;;;;;3.13;2.90;;;;;;;;;;5046925;28;20462;-76
2022/10/08 03:58:42;;;;;;;6.40;3.57;;;;;;;;;;5043345;28;20797;-74
2022/10/08 04:01:10;;;;;;;4.87;3.70;;;;;;;;;;5047299;28;20482;-76
2022/10/08 04:03:36;;;;;;;4.60;4.23;;;;;;;;;;5044368;28;20469;-76
2022/10/08 04:06:02;;;;;;;3.57;2.80;;;;;;;;;;5046982;28;20445;-76
2022/10/08 04:08:28;;;;;;;3.70;3.40;;;;;;;;;;5043130;28;21014;-76
2022/10/08 04:10:54;;;;;;;7.33;3.47;;;;;;;;;;5044671;28;20516;-76
2022/10/08 04:13:21;;;;;;;4.07;3.73;;;;;;;;;;5043270;28;20457;-76
2022/10/08 04:15:48;;;;;;;3.97;3.67;;;;;;;;;;5045521;28;21162;-76
2022/10/08 04:18:14;;;;;;;8.87;4.30;;;;;;;;;;5043431;28;20528;-76
2022/10/08 04:20:41;;;;;;;11.73;4.70;;;;;;;;;;5046695;28;20394;-77
2022/10/08 04:23:07;;;;;;;10.17;4.50;;;;;;;;;;5044059;28;20453;-77
2022/10/08 04:25:34;;;;;;;8.10;4.30;;;;;;;;;;5045666;28;20772;-76
2022/10/08 04:28:00;;;;;;;8.30;4.47;;;;;;;;;;5043051;28;20430;-75
2022/10/08 04:30:26;;;;;;;12.63;5.40;;;;;;;;;;5046901;28;20412;-76
2022/10/08 04:32:52;;;;;;;6.07;4.07;;;;;;;;;;5044389;28;20437;-75
2022/10/08 04:35:18;;;;;;;11.23;4.83;;;;;;;;;;5044983;28;21108;-76
2022/10/08 04:37:44;;;;;;;4.50;4.10;;;;;;;;;;5046575;28;20681;-76
2022/10/08 04:40:10;;;;;;;4.90;4.57;;;;;;;;;;5024387;28;20705;-75
2022/10/08 04:42:36;;;;;;;10.63;4.30;;;;;;;;;;5046080;28;20534;-76
2022/10/08 04:45:02;;;;;;;13.47;5.37;;;;;;;;;;5040681;28;20437;-76
2022/10/08 04:47:28;;;;;;;6.03;4.50;;;;;;;;;;5046758;28;20491;-76
2022/10/08 04:49:54;;;;;;;11.20;5.30;;;;;;;;;;5026775;28;20800;-75
2022/10/08 04:52:20;;;;;;;10.97;4.93;;;;;;;;;;5057378;28;20429;-76
2022/10/08 04:54:46;;;;;;;5.83;4.90;;;;;;;;;;5052731;28;20528;-76
2022/10/08 04:57:12;;;;;;;11.20;4.70;;;;;;;;;;5062736;28;20711;-77
2022/10/08 04:59:38;;;;;;;6.47;4.30;;;;;;;;;;5038583;28;20525;-76
2022/10/08 05:02:04;;;;;;;8.43;5.80;;;;;;;;;;5045500;28;20465;-76
2022/10/08 05:04:30;;;;;;;8.57;5.60;;;;;;;;;;5042214;28;20445;-75
2022/10/08 05:06:56;;;;;;;15.67;5.23;;;;;;;;;;5045853;28;20519;-75
2022/10/08 05:09:22;;;;;;;9.00;5.03;;;;;;;;;;5040430;28;20496;-76
2022/10/08 05:11:49;;;;;;;7.77;5.13;;;;;;;;;;5034342;28;20438;-76
2022/10/08 05:14:15;;;;;;;4.77;3.57;;;;;;;;;;5042278;28;20446;-76
2022/10/08 05:16:41;;;;;;;7.03;5.20;;;;;;;;;;5045697;28;20778;-76
2022/10/08 05:19:07;;;;;;;12.53;5.40;;;;;;;;;;5041583;28;20560;-75
2022/10/08 05:21:33;;;;;;;4.83;4.43;;;;;;;;;;5045786;28;21384;-76
2022/10/08 05:24:01;;;;;;;6.57;5.40;;;;;;;;;;5034843;28;20435;-76
2022/10/08 05:26:28;;;;;;;6.63;4.40;;;;;;;;;;5045191;28;20815;-76
2022/10/08 05:28:55;;;;;;;9.20;5.43;;;;;;;;;;5041613;28;20437;-77
2022/10/08 05:31:22;;;;;;;6.10;5.50;;;;;;;;;;5045765;28;20414;-77
2022/10/08 05:33:48;;;;;;;7.87;5.33;;;;;;;;;;5042203;28;20817;-76
2022/10/08 05:36:16;;;;;;;5.23;4.60;;;;;;;;;;5045293;28;20481;-77
2022/10/08 05:38:45;;;;;;;5.10;4.80;;;;;;;;;;5041821;28;20517;-76
2022/10/08 05:41:12;;;;;;;7.10;6.20;;;;;;;;;;5045287;28;20430;-77
2022/10/08 05:43:38;;;;;;;11.93;6.10;;;;;;;;;;5041593;28;20495;-76
2022/10/08 05:46:04;;;;;;;7.33;5.80;;;;;;;;;;5041893;28;20467;-77
2022/10/08 05:48:30;;;;;;;8.17;5.60;;;;;;;;;;5041783;28;20449;-76
2022/10/08 05:50:56;;;;;;;6.67;4.87;;;;;;;;;;5044978;28;20542;-76
2022/10/08 05:53:22;;;;;;;6.00;5.47;;;;;;;;;;5041076;28;20944;-76
2022/10/08 05:55:48;;;;;;;5.50;5.00;;;;;;;;;;5045196;28;20404;-76
2022/10/08 05:58:14;;;;;;;6.50;5.90;;;;;;;;;;5041159;28;21036;-74
2022/10/08 06:00:40;;;;;;;5.97;5.50;;;;;;;;;;5045295;28;20567;-77
2022/10/08 06:03:06;;;;;;;11.03;5.97;;;;;;;;;;5045045;28;20468;-76
2022/10/08 06:05:32;;;;;;;6.37;5.83;;;;;;;;;;5022350;28;20442;-77
2022/10/08 06:07:58;;;;;;;6.50;5.87;;;;;;;;;;5044112;28;20426;-77
2022/10/08 06:10:24;;;;;;;8.17;6.60;;;;;;;;;;5041017;28;20446;-76
2022/10/08 06:12:50;;;;;;;7.77;6.80;;;;;;;;;;5044369;28;21043;-77
2022/10/08 06:15:16;;;;;;;14.27;6.87;;;;;;;;;;5041085;28;20450;-76
2022/10/08 06:17:42;;;;;;;8.20;7.30;;;;;;;;;;5044698;28;20433;-76
2022/10/08 06:20:08;;;;;;;7.97;7.17;;;;;;;;;;5025546;28;20833;-77
2022/10/08 06:22:35;;;;;;;8.33;7.50;;;;;;;;;;5044240;28;20477;-76
2022/10/08 06:25:01;;;;;;;10.60;7.90;;;;;;;;;;5040945;28;20854;-76
2022/10/08 06:27:27;;;;;;;9.60;8.00;;;;;;;;;;5044559;28;20579;-76
2022/10/08 06:29:53;;;;;;;9.03;8.10;;;;;;;;;;5027855;28;20438;-77
2022/10/08 06:32:19;;;;;;;10.07;8.20;;;;;;;;;;5044224;28;20516;-76
2022/10/08 06:34:45;;;;;;;8.50;8.00;;;;;;;;;;5040816;28;20528;-76
2022/10/08 06:37:11;;;;;;;7.67;6.97;;;;;;;;;;5044421;28;20552;-76
2022/10/08 06:39:37;;;;;;;10.73;7.90;;;;;;;;;;5041011;28;20461;-75
2022/10/08 06:42:03;;;;;;;9.83;7.67;;;;;;;;;;5044284;28;20819;-75
2022/10/08 06:44:29;;;;;;;8.90;8.03;;;;;;;;;;5038347;28;20808;-76
2022/10/08 06:46:55;;;;;;;12.20;7.00;;;;;;;;;;5043981;28;20430;-75
2022/10/08 06:49:25;;;;;;;9.60;7.77;;;;;;;;;;5041078;28;20491;-76
2022/10/08 06:51:51;;;;;;;11.87;7.17;;;;;;;;;;5024355;28;20425;-76
2022/10/08 06:54:17;;;;;;;8.63;7.77;;;;;;;;;;5040405;28;20524;-76
2022/10/08 06:56:43;;;;;;;12.33;8.07;;;;;;;;;;5049577;28;20397;-76
2022/10/08 06:59:09;;;;;;;10.93;7.20;;;;;;;;;;5054001;28;20501;-77
2022/10/08 07:01:35;;;;;;;10.13;7.87;;;;;;;;;;4708277;28;9999588;-77
2022/10/08 07:04:01;;;;;;;8.23;7.47;;;;;;;;;;5041000;28;20221;-76
2022/10/08 07:06:28;;;;;;;9.03;8.10;;;;;;;;;;5044489;28;20513;-76
2022/10/08 07:08:55;;;;;;;9.73;8.83;;;;;;;;;;5040779;28;20441;-75
2022/10/08 07:11:21;;;;;;;10.87;9.77;;;;;;;;;;5035340;28;20422;-75
2022/10/08 07:13:47;;;;;;;15.50;10.60;;;;;;;;;;5038760;28;20512;-75
2022/10/08 07:16:18;;;;;;;15.47;11.27;;;;;;;;;;5044723;28;20457;-75
2022/10/08 07:18:45;;;;;;;13.97;11.40;;;;;;;;;;5038949;28;22370;-74
2022/10/08 07:21:12;;;;;;;16.90;12.53;;;;;;;;;;5044282;28;20516;-76
2022/10/08 07:23:38;;;;;;;14.63;13.13;;;;;;;;;;5041072;28;20422;-76
2022/10/08 07:26:10;;;;;;;19.20;15.60;;;;;;;;;;5035459;28;20410;-75
2022/10/08 07:28:37;;;;;;;20.00;14.27;;;;;;;;;;5040720;28;20461;-75
2022/10/08 07:31:13;;;;;;;20.50;15.17;;;;;;;;;;5036737;28;20413;-76
2022/10/08 07:33:42;;;;;;;19.10;15.07;;;;;;;;;;5040132;28;20436;-73
2022/10/08 07:36:21;;;;;;;16.83;15.10;;;;;;;;;;5035844;28;20417;-75
2022/10/08 07:38:47;;;;;;;21.17;17.07;;;;;;;;;;5039491;28;20499;-74
2022/10/08 07:41:13;;;;;;;23.33;16.97;;;;;;;;;;5044444;28;21083;-75
2022/10/08 07:43:40;;;;;;;21.30;17.60;;;;;;;;;;5039827;28;20438;-74
2022/10/08 07:46:06;;;;;;;32.93;16.90;;;;;;;;;;5041327;28;20678;-74
2022/10/08 07:48:32;;;;;;;20.07;17.80;;;;;;;;;;5041439;28;20709;-74
2022/10/08 07:51:08;;;;;;;22.40;18.40;;;;;;;;;;5034433;28;20429;-73
2022/10/08 07:53:35;;;;;;;21.00;16.70;;;;;;;;;;5042560;28;20448;-75
2022/10/08 07:56:01;;;;;;;22.83;17.60;;;;;;;;;;5046611;28;20911;-73
2022/10/08 07:58:27;;;;;;;26.97;18.63;;;;;;;;;;4693792;28;10000285;-74
2022/10/08 08:00:57;;;;;;;20.03;16.07;;;;;;;;;;5035273;28;20230;-74
2022/10/08 08:03:23;;;;;;;19.73;15.60;;;;;;;;;;5034267;28;20494;-73
2022/10/08 08:05:49;;;;;;;16.87;15.17;;;;;;;;;;5030879;28;20453;-76
2022/10/08 08:08:15;;;;;;;17.90;14.13;;;;;;;;;;5043034;28;20503;-73
2022/10/08 08:10:41;;;;;;;21.40;16.63;;;;;;;;;;5038644;28;20449;-74
2022/10/08 08:13:06;;;;;;;21.57;16.33;;;;;;;;;;5042672;28;20481;-73
2022/10/08 08:15:33;;;;;;;22.30;17.00;;;;;;;;;;5040926;28;21015;-74
2022/10/08 08:17:58;;;;;;;17.67;15.83;;;;;;;;;;5043125;28;20933;-75
2022/10/08 08:20:24;;;;;;;24.43;17.70;;;;;;;;;;5027604;28;20473;-74
2022/10/08 08:22:50;;;;;;;22.60;17.50;;;;;;;;;;5044209;28;20483;-74
2022/10/08 08:25:16;;;;;;;25.30;17.67;;;;;;;;;;5042249;28;20429;-73
2022/10/08 08:27:42;;;;;;;20.00;16.20;;;;;;;;;;5046069;28;20883;-74
2022/10/08 08:30:09;;;;;;;20.13;15.73;;;;;;;;;;5030444;28;20470;-74
2022/10/08 08:32:35;;;;;;;18.90;14.17;;;;;;;;;;5045716;28;20824;-74
2022/10/08 08:35:01;;;;;;;21.00;14.00;;;;;;;;;;5041773;28;20426;-74
2022/10/08 08:37:27;;;;;;;15.47;13.87;;;;;;;;;;5045925;28;20855;-75
2022/10/08 08:39:53;;;;;;;21.53;14.53;;;;;;;;;;5041913;28;20441;-74
2022/10/08 08:42:27;;;;;;;19.90;15.20;;;;;;;;;;5046107;28;20569;-75
2022/10/08 08:45:00;;;;;;;24.60;16.47;;;;;;;;;;5037778;28;20460;-74
2022/10/08 08:47:34;;;;;;;19.43;14.37;;;;;;;;;;5044282;28;20538;-73
2022/10/08 08:50:00;;;;;;;17.77;15.13;;;;;;;;;;5041346;28;20471;-74
2022/10/08 08:52:29;;;;;;;20.40;14.67;;;;;;;;;;5045688;28;20524;-75
2022/10/08 08:54:55;;;;;;;15.27;13.00;;;;;;;;;;5041307;28;20437;-73
2022/10/08 08:57:39;;;;;;;14.70;11.10;;;;;;;;;;5045539;28;20433;-73
2022/10/08 09:00:14;;;;;;;21.47;12.27;;;;;;;;;;5042137;28;20850;-72
2022/10/08 09:03:03;;;;;;;15.83;12.90;;;;;;;;;;5033907;28;20477;-73
2022/10/08 09:05:32;;;;;;;15.73;11.60;;;;;;;;;;4694664;28;10000571;-74
2022/10/08 09:08:04;;;;;;;12.50;10.73;;;;;;;;;;5041915;28;20195;-74
2022/10/08 09:10:49;;;;;;;13.73;9.53;;;;;;;;;;5030264;28;20468;-73
2022/10/08 09:13:19;;;;;;;12.00;10.20;;;;;;;;;;5042171;28;20538;-74
2022/10/08 09:15:45;;;;;;;13.40;11.03;;;;;;;;;;5029283;28;20512;-75
2022/10/08 09:18:13;;;;;;;12.63;8.97;;;;;;;;;;5041207;28;20504;-76
2022/10/08 09:20:39;;;;;;;10.03;8.33;;;;;;;;;;5040526;28;20978;-74
2022/10/08 09:23:12;;;;;;;10.77;7.87;;;;;;;;;;5045144;28;20518;-75
2022/10/08 09:25:39;;;;;;;8.07;7.40;;;;;;;;;;5036701;28;20584;-75
2022/10/08 09:28:05;;;;;;;8.63;7.90;;;;;;;;;;5044379;28;20433;-74
2022/10/08 09:30:49;;;;;;;11.63;7.53;;;;;;;;;;5041201;28;20605;-74
2022/10/08 09:33:15;;;;;;;9.00;8.10;;;;;;;;;;5025188;28;20422;-75
2022/10/08 09:35:51;;;;;;;7.77;7.00;;;;;;;;;;5041249;28;20488;-77
2022/10/08 09:38:25;;;;;;;7.87;7.03;;;;;;;;;;5044880;28;20437;-77
2022/10/08 09:41:01;;;;;;;6.60;5.50;;;;;;;;;;4998444;28;10001316;-77
2022/10/08 09:43:27;;;;;;;7.13;6.00;;;;;;;;;;5040133;28;20945;-77
2022/10/08 09:45:53;;;;;;;6.70;6.07;;;;;;;;;;5027416;28;20943;-78
2022/10/08 09:48:24;;;;;;;6.33;5.83;;;;;;;;;;5042290;28;20444;-78
2022/10/08 09:50:52;;;;;;;5.57;5.07;;;;;;;;;;5029566;28;20437;-77
2022/10/08 09:53:19;;;;;;;7.23;6.70;;;;;;;;;;5040959;28;20418;-77
2022/10/08 09:55:55;;;;;;;6.97;6.37;;;;;;;;;;5037665;28;20440;-77
2022/10/08 09:58:21;;;;;;;5.67;4.90;;;;;;;;;;5041580;28;20448;-76
2022/10/08 10:00:55;;;;;;;8.87;6.20;;;;;;;;;;5028898;28;20439;-79
2022/10/08 10:03:22;;;;;;;6.70;5.33;;;;;;;;;;5038069;28;21000;-78
2022/10/08 10:05:52;;;;;;;9.20;5.50;;;;;;;;;;5037813;28;20936;-76
2022/10/08 10:08:36;;;;;;;7.60;5.03;;;;;;;;;;5041518;28;20433;-75
2022/10/08 10:11:02;;;;;;;7.17;4.90;;;;;;;;;;5041856;28;20943;-75
2022/10/08 10:13:36;;;;;;;4.90;4.33;;;;;;;;;;5041703;28;20458;-75
2022/10/08 10:16:09;;;;;;;4.03;3.70;;;;;;;;;;5036286;28;20453;-77
2022/10/08 10:18:56;;;;;;;5.70;5.03;;;;;;;;;;5044785;28;20421;-76
2022/10/08 10:21:25;;;;;;;5.30;4.77;;;;;;;;;;5039425;28;20601;-76
2022/10/08 10:24:03;;;;;;;6.73;4.47;;;;;;;;;;5043817;28;20437;-78
2022/10/08 10:26:33;;;;;;;4.70;3.47;;;;;;;;;;5044709;28;20437;-75
2022/10/08 10:29:01;;;;;;;3.87;3.40;;;;;;;;;;5044263;28;20931;-77
2022/10/08 10:31:33;;;;;;;3.03;2.90;;;;;;;;;;5045343;28;20437;-74
2022/10/08 10:34:14;;;;;;;3.50;2.93;;;;;;;;;;5047861;28;20476;-77
2022/10/08 10:36:51;;;;;;;3.10;2.80;;;;;;;;;;5049118;28;20903;-75
2022/10/08 10:39:20;;;;;;;2.63;2.53;;;;;;;;;;5027096;28;20425;-76
2022/10/08 10:41:50;;;;;;;2.10;1.70;;;;;;;;;;5048372;28;20449;-77
2022/10/08 10:44:19;;;;;;;3.87;2.77;;;;;;;;;;5041095;28;20520;-77
2022/10/08 10:46:53;;;;;;;2.43;1.60;;;;;;;;;;5048621;28;20402;-77
2022/10/08 10:49:23;;;;;;;3.33;2.30;;;;;;;;;;5045083;28;20484;-77
2022/10/08 10:52:07;;;;;;;2.43;2.07;;;;;;;;;;5048361;28;20907;-76
2022/10/08 10:54:42;;;;;;;2.90;2.70;;;;;;;;;;5044168;28;21405;-76
2022/10/08 10:57:11;;;;;;;2.63;2.43;;;;;;;;;;5044147;28;20502;-75
2022/10/08 10:59:55;;;;;;;2.90;2.70;;;;;;;;;;4694611;28;10000026;-74
2022/10/08 11:02:34;;;;;;;4.63;2.23;;;;;;;;;;5045231;28;20206;-76
2022/10/08 11:05:20;;;;;;;2.23;2.13;;;;;;;;;;5045037;28;20847;-74
2022/10/08 11:08:01;;;;;;;2.00;1.87;;;;;;;;;;5045455;28;20843;-75
2022/10/08 11:10:39;;;;;;;1.80;1.70;;;;;;;;;;5039854;28;20756;-75
2022/10/08 11:13:24;;;;;;;2.20;2.00;;;;;;;;;;5043510;28;20457;-76
2022/10/08 11:15:56;;;;;;;3.03;2.60;;;;;;;;;;5027247;28;20508;-76
2022/10/08 11:18:22;;;;;;;3.03;2.07;;;;;;;;;;5026876;28;20422;-75
2022/10/08 11:21:06;;;;;;;3.03;2.77;;;;;;;;;;5042677;28;20441;-74
2022/10/08 11:23:56;;;;;;;3.37;3.27;;;;;;;;;;5045210;28;20481;-75
2022/10/08 11:26:37;;;;;;;1.73;1.60;;;;;;;;;;5040948;28;20528;-74
2022/10/08 11:29:19;;;;;;;1.87;1.77;;;;;;;;;;5037215;28;20433;-76
2022/10/08 11:31:47;;;;;;;2.27;1.30;;;;;;;;;;5056044;28;20436;-75
2022/10/08 11:34:22;;;;;;;1.77;1.77;;;;;;;;;;5046864;28;20429;-75
2022/10/08 11:37:08;;;;;;;3.80;1.43;;;;;;;;;;5047743;28;20420;-75
2022/10/08 11:39:37;;;;;;;1.40;1.30;;;;;;;;;;5026358;28;20426;-75
2022/10/08 11:42:06;;;;;;;1.97;1.30;;;;;;;;;;5045972;28;20525;-76
2022/10/08 11:44:32;;;;;;;1.43;1.43;;;;;;;;;;5040812;28;20425;-75
2022/10/08 11:47:17;;;;;;;2.00;1.63;;;;;;;;;;5047019;28;20401;-75
2022/10/08 11:49:47;;;;;;;2.20;1.80;;;;;;;;;;5043197;28;20429;-77
2022/10/08 11:52:13;;;;;;;3.13;1.80;;;;;;;;;;5047242;28;20494;-75
2022/10/08 11:54:41;;;;;;;1.70;1.60;;;;;;;;;;5043599;28;20568;-75
2022/10/08 11:57:18;;;;;;;2.30;1.20;;;;;;;;;;5047064;28;20897;-74
2022/10/08 12:00:03;;;;;;;3.10;1.33;;;;;;;;;;5026795;28;20433;-75
2022/10/08 12:02:30;;;;;;;2.20;1.53;;;;;;;;;;5056910;28;20864;-76
2022/10/08 12:04:58;;;;;;;5.50;2.10;;;;;;;;;;5034141;28;20483;-74
2022/10/08 12:07:29;;;;;;;7.57;2.37;;;;;;;;;;5041478;28;20769;-75
2022/10/08 12:10:07;;;;;;;1.83;1.50;;;;;;;;;;5030158;28;20467;-75
2022/10/08 12:12:49;;;;;;;1.27;1.23;;;;;;;;;;5046652;28;20465;-76
2022/10/08 12:15:24;;;;;;;2.20;1.63;;;;;;;;;;5042775;28;20655;-77
2022/10/08 12:17:57;;;;;;;1.70;0.87;;;;;;;;;;5046826;28;20425;-76
2022/10/08 12:20:23;;;;;;;0.97;0.97;;;;;;;;;;5042293;28;20445;-81
2022/10/08 12:23:01;;;;;;;1.53;1.30;;;;;;;;;;5045755;28;20453;-77
2022/10/08 12:25:30;;;;;;;3.00;1.67;;;;;;;;;;5036310;28;20790;-77
2022/10/08 12:28:15;;;;;;;1.50;1.40;;;;;;;;;;5046757;28;20427;-78
2022/10/08 12:30:48;;;;;;;1.30;1.20;;;;;;;;;;5038565;28;20461;-77
2022/10/08 12:33:15;;;;;;;1.60;1.50;;;;;;;;;;5044451;28;20418;-77
2022/10/08 12:35:51;;;;;;;1.77;1.40;;;;;;;;;;5042509;28;20491;-77
2022/10/08 12:38:26;;;;;;;1.43;1.20;;;;;;;;;;5044976;28;20449;-77
2022/10/08 12:40:54;;;;;;;4.93;1.27;;;;;;;;;;5053455;28;20950;-77
2022/10/08 12:43:40;;;;;;;1.23;1.23;;;;;;;;;;5044927;28;20468;-76
2022/10/08 12:46:16;;;;;;;2.07;1.20;;;;;;;;;;5027199;28;20932;-75
2022/10/08 12:48:53;;;;;;;4.83;1.90;;;;;;;;;;5028282;28;20986;-78
2022/10/08 12:51:39;;;;;;;2.70;2.50;;;;;;;;;;5037116;28;20537;-79
2022/10/08 12:54:05;;;;;;;0.80;0.80;;;;;;;;;;5024736;28;20418;-77
2022/10/08 12:56:31;;;;;;;3.70;1.20;;;;;;;;;;5030815;28;20525;-77
2022/10/08 12:59:01;;;;;;;1.90;1.50;;;;;;;;;;5028931;28;20462;-78
2022/10/08 13:01:27;;;;;;;1.50;1.40;;;;;;;;;;5025522;28;20465;-77
2022/10/08 13:04:08;;;;;;;1.77;1.23;;;;;;;;;;5035733;28;20444;-78
2022/10/08 13:06:34;;;;;;;1.17;1.03;;;;;;;;;;5034573;28;20450;-77
2022/10/08 13:09:01;;;;;;;1.07;1.07;;;;;;;;;;5037203;28;20429;-78
2022/10/08 13:11:27;;;;;;;2.87;1.53;;;;;;;;;;5034491;28;20506;-77
2022/10/08 13:13:53;;;;;;;1.53;1.50;;;;;;;;;;4342869;28;10000753;-77
2022/10/08 13:16:25;;;;;;;2.47;1.30;;;;;;;;;;5022713;28;20203;-77
2022/10/08 13:18:53;;;;;;;1.33;1.23;;;;;;;;;;5048479;28;20434;-77
2022/10/08 13:21:21;;;;;;;1.60;1.60;;;;;;;;;;5043586;28;20544;-77
2022/10/08 13:23:48;;;;;;;2.90;1.10;;;;;;;;;;5041166;28;20828;-77
2022/10/08 13:26:32;;;;;;;1.10;0.90;;;;;;;;;;5032666;28;20445;-77
2022/10/08 13:29:17;;;;;;;2.93;1.00;;;;;;;;;;5034985;28;20427;-78
2022/10/08 13:31:43;;;;;;;2.20;1.30;;;;;;;;;;5028366;28;20657;-77
2022/10/08 13:34:17;;;;;;;1.17;1.17;;;;;;;;;;5034334;28;20442;-78
2022/10/08 13:36:53;;;;;;;0.80;0.80;;;;;;;;;;5029080;28;20454;-77
2022/10/08 13:39:21;;;;;;;1.60;0.83;;;;;;;;;;5039973;28;20508;-76
2022/10/08 13:41:51;;;;;;;1.53;1.43;;;;;;;;;;5028556;28;20470;-77
2022/10/08 13:44:17;;;;;;;1.33;1.23;;;;;;;;;;5035578;28;20514;-77
2022/10/08 13:46:43;;;;;;;1.00;0.90;;;;;;;;;;5030869;28;20450;-76
2022/10/08 13:49:20;;;;;;;1.30;1.30;;;;;;;;;;5038609;28;20857;-76
2022/10/08 13:51:46;;;;;;;1.00;1.00;;;;;;;;;;5032782;28;20442;-75
2022/10/08 13:54:14;;;;;;;0.97;0.70;;;;;;;;;;5032461;28;20908;-75
2022/10/08 13:56:39;;;;;;;1.30;1.30;;;;;;;;;;5037053;28;20807;-76
2022/10/08 13:59:05;;;;;;;1.03;0.90;;;;;;;;;;5041753;28;20590;-76
2022/10/08 14:01:31;;;;;;;1.50;1.20;;;;;;;;;;5035506;28;20861;-75
2022/10/08 14:03:57;;;;;;;2.00;1.10;;;;;;;;;;5039081;28;20547;-76
2022/10/08 14:06:23;;;;;;;1.63;1.20;;;;;;;;;;5031701;28;20951;-77
2022/10/08 14:08:49;;;;;;;0.83;0.83;;;;;;;;;;5040244;28;20965;-76
2022/10/08 14:11:16;;;;;;;4.03;1.30;;;;;;;;;;5037350;28;20442;-76
2022/10/08 14:13:42;;;;;;;1.03;0.93;;;;;;;;;;5040751;28;20528;-79
2022/10/08 14:16:09;;;;;;;1.37;0.80;;;;;;;;;;5038687;28;20437;-75
2022/10/08 14:18:35;;;;;;;1.57;1.30;;;;;;;;;;5042157;28;20491;-77
2022/10/08 14:21:01;;;;;;;3.40;1.37;;;;;;;;;;5037229;28;20438;-77
2022/10/08 14:23:27;;;;;;;1.70;0.70;;;;;;;;;;5039534;28;20481;-77
2022/10/08 14:25:53;;;;;;;1.23;1.10;;;;;;;;;;5034277;28;20525;-76
2022/10/08 14:28:19;;;;;;;1.50;1.40;;;;;;;;;;5044434;28;20567;-75
2022/10/08 14:30:45;;;;;;;1.43;1.00;;;;;;;;;;5040652;28;20436;-76
2022/10/08 14:33:11;;;;;;;2.57;1.63;;;;;;;;;;5040148;28;20416;-78
2022/10/08 14:35:37;;;;;;;2.63;1.20;;;;;;;;;;5034277;28;20453;-76
2022/10/08 14:38:07;;;;;;;1.90;1.60;;;;;;;;;;5042045;28;20420;-77
2022/10/08 14:40:34;;;;;;;0.97;0.87;;;;;;;;;;5036873;28;20453;-77
2022/10/08 14:43:00;;;;;;;1.20;1.20;;;;;;;;;;5042119;28;20490;-78
2022/10/08 14:45:26;;;;;;;2.30;1.70;;;;;;;;;;5037559;28;20528;-78
2022/10/08 14:47:52;;;;;;;1.27;1.27;;;;;;;;;;5034650;28;20422;-78
2022/10/08 14:50:18;;;;;;;1.30;1.20;;;;;;;;;;5039476;28;20441;-77
2022/10/08 14:52:44;;;;;;;4.03;1.03;;;;;;;;;;5042852;28;20452;-77